sensor_id;sensor_type;location;lat;lon;timestamp;pressure;altitude;pressure_sealevel;temperature;humidity
58879;BME280;44660;42.664;23.266;2022-12-07T00:01:06;94495.41;;;5.87;72.22
58879;BME280;44660;42.664;23.266;2022-12-07T00:03:32;94539.94;;;6.09;72.57
58879;BME280;44660;42.664;23.266;2022-12-07T00:05:58;94519.13;;;6.01;72.86
58879;BME280;44660;42.664;23.266;2022-12-07T00:08:24;94524.41;;;6.01;72.76
58879;BME280;44660;42.664;23.266;2022-12-07T00:10:49;94511.81;;;5.96;72.56
58879;BME280;44660;42.664;23.266;2022-12-07T00:13:15;94533.94;;;6.02;72.75
58879;BME280;44660;42.664;23.266;2022-12-07T00:15:40;94510.53;;;5.73;74.02
58879;BME280;44660;42.664;23.266;2022-12-07T00:18:06;94526.22;;;6.00;73.86
58879;BME280;44660;42.664;23.266;2022-12-07T00:20:31;94510.41;;;5.94;73.46
58879;BME280;44660;42.664;23.266;2022-12-07T00:22:58;94526.91;;;6.14;73.98
58879;BME280;44660;42.664;23.266;2022-12-07T00:25:23;94521.75;;;6.01;73.73
58879;BME280;44660;42.664;23.266;2022-12-07T00:27:49;94520.91;;;6.07;73.11
58879;BME280;44660;42.664;23.266;2022-12-07T00:30:15;94529.72;;;6.19;72.78
58879;BME280;44660;42.664;23.266;2022-12-07T00:32:40;94501.38;;;6.08;72.69
58879;BME280;44660;42.664;23.266;2022-12-07T00:35:06;94529.25;;;6.29;72.48
58879;BME280;44660;42.664;23.266;2022-12-07T00:37:31;94531.13;;;6.22;72.52
58879;BME280;44660;42.664;23.266;2022-12-07T00:39:57;94477.94;;;5.93;72.23
58879;BME280;44660;42.664;23.266;2022-12-07T00:42:22;94526.44;;;6.24;72.38
58879;BME280;44660;42.664;23.266;2022-12-07T00:44:48;94540.97;;;6.33;72.71
58879;BME280;44660;42.664;23.266;2022-12-07T00:47:13;94529.78;;;6.38;72.63
58879;BME280;44660;42.664;23.266;2022-12-07T00:49:38;94530.81;;;6.37;72.56
58879;BME280;44660;42.664;23.266;2022-12-07T00:52:04;94525.34;;;6.32;72.76
58879;BME280;44660;42.664;23.266;2022-12-07T00:54:30;94471.59;;;6.01;72.68
58879;BME280;44660;42.664;23.266;2022-12-07T00:56:55;94529.34;;;6.41;72.62
58879;BME280;44660;42.664;23.266;2022-12-07T00:59:20;94481.31;;;6.07;72.35
58879;BME280;44660;42.664;23.266;2022-12-07T01:01:46;94530.97;;;6.17;72.38
58879;BME280;44660;42.664;23.266;2022-12-07T01:04:12;94529.19;;;6.36;72.63
58879;BME280;44660;42.664;23.266;2022-12-07T01:06:38;94528.38;;;6.10;72.94
58879;BME280;44660;42.664;23.266;2022-12-07T01:09:03;94503.59;;;6.11;72.99
58879;BME280;44660;42.664;23.266;2022-12-07T01:11:30;94498.91;;;6.13;73.03
58879;BME280;44660;42.664;23.266;2022-12-07T01:13:57;94529.63;;;6.33;73.11
58879;BME280;44660;42.664;23.266;2022-12-07T01:16:26;94485.41;;;5.96;72.84
58879;BME280;44660;42.664;23.266;2022-12-07T01:18:53;94512.28;;;6.18;73.31
58879;BME280;44660;42.664;23.266;2022-12-07T01:21:24;94501.59;;;6.07;73.65
58879;BME280;44660;42.664;23.266;2022-12-07T01:23:50;94520.75;;;6.27;73.49
58879;BME280;44660;42.664;23.266;2022-12-07T01:26:18;94513.78;;;6.33;73.22
58879;BME280;44660;42.664;23.266;2022-12-07T01:28:44;94494.28;;;6.34;72.96
58879;BME280;44660;42.664;23.266;2022-12-07T01:31:13;94492.41;;;6.16;73.34
58879;BME280;44660;42.664;23.266;2022-12-07T01:33:49;94483.94;;;6.07;73.47
58879;BME280;44660;42.664;23.266;2022-12-07T01:38:47;94491.25;;;6.05;73.56
58879;BME280;44660;42.664;23.266;2022-12-07T01:41:13;94419.31;;;5.59;73.53
58879;BME280;44660;42.664;23.266;2022-12-07T01:44:18;94514.31;;;6.16;73.61
58879;BME280;44660;42.664;23.266;2022-12-07T01:46:56;94508.81;;;6.18;73.39
58879;BME280;44660;42.664;23.266;2022-12-07T01:52:28;94502.91;;;6.23;73.34
58879;BME280;44660;42.664;23.266;2022-12-07T01:55:02;94422.91;;;5.65;73.44
58879;BME280;44660;42.664;23.266;2022-12-07T01:57:30;94499.13;;;6.12;73.58
58879;BME280;44660;42.664;23.266;2022-12-07T01:59:57;94481.56;;;5.99;73.46
58879;BME280;44660;42.664;23.266;2022-12-07T02:02:30;94488.78;;;6.10;73.44
58879;BME280;44660;42.664;23.266;2022-12-07T02:04:59;94448.50;;;5.89;73.55
58879;BME280;44660;42.664;23.266;2022-12-07T02:07:27;94451.94;;;5.90;73.58
58879;BME280;44660;42.664;23.266;2022-12-07T02:09:53;94449.53;;;5.88;73.97
58879;BME280;44660;42.664;23.266;2022-12-07T02:12:19;94486.75;;;6.12;73.98
58879;BME280;44660;42.664;23.266;2022-12-07T02:14:46;94499.28;;;6.17;73.85
58879;BME280;44660;42.664;23.266;2022-12-07T02:17:14;94484.03;;;6.19;73.77
58879;BME280;44660;42.664;23.266;2022-12-07T02:22:58;94484.41;;;6.23;73.92
58879;BME280;44660;42.664;23.266;2022-12-07T02:28:06;94484.91;;;6.13;73.58
58879;BME280;44660;42.664;23.266;2022-12-07T02:30:40;94446.66;;;5.90;73.45
58879;BME280;44660;42.664;23.266;2022-12-07T02:33:14;94470.91;;;6.12;73.53
58879;BME280;44660;42.664;23.266;2022-12-07T02:35:53;94475.16;;;6.13;73.56
58879;BME280;44660;42.664;23.266;2022-12-07T02:38:26;94450.59;;;5.81;73.92
58879;BME280;44660;42.664;23.266;2022-12-07T02:41:05;94475.66;;;5.97;73.83
58879;BME280;44660;42.664;23.266;2022-12-07T02:43:40;94463.34;;;5.91;74.01
58879;BME280;44660;42.664;23.266;2022-12-07T02:46:15;94470.47;;;5.83;74.21
58879;BME280;44660;42.664;23.266;2022-12-07T02:48:43;94486.88;;;5.92;74.32
58879;BME280;44660;42.664;23.266;2022-12-07T02:51:08;94416.91;;;5.58;74.15
58879;BME280;44660;42.664;23.266;2022-12-07T02:53:42;94444.34;;;5.75;74.21
58879;BME280;44660;42.664;23.266;2022-12-07T03:07:05;94443.84;;;5.60;74.76
58879;BME280;44660;42.664;23.266;2022-12-07T03:09:46;94447.31;;;5.60;74.95
58879;BME280;44660;42.664;23.266;2022-12-07T03:12:25;94425.88;;;5.50;74.67
58879;BME280;44660;42.664;23.266;2022-12-07T03:15:12;94432.41;;;5.47;74.98
58879;BME280;44660;42.664;23.266;2022-12-07T03:17:40;94436.47;;;5.43;74.58
58879;BME280;44660;42.664;23.266;2022-12-07T03:20:11;94445.31;;;5.55;74.55
58879;BME280;44660;42.664;23.266;2022-12-07T03:22:40;94455.00;;;5.62;74.78
58879;BME280;44660;42.664;23.266;2022-12-07T03:25:10;94455.06;;;5.55;74.59
58879;BME280;44660;42.664;23.266;2022-12-07T03:27:42;94457.47;;;5.56;74.72
58879;BME280;44660;42.664;23.266;2022-12-07T03:30:19;94455.91;;;5.49;74.84
58879;BME280;44660;42.664;23.266;2022-12-07T03:32:59;94451.09;;;5.39;75.06
58879;BME280;44660;42.664;23.266;2022-12-07T03:35:40;94458.78;;;5.47;75.12
58879;BME280;44660;42.664;23.266;2022-12-07T03:38:18;94438.25;;;5.17;75.60
58879;BME280;44660;42.664;23.266;2022-12-07T03:40:50;94447.94;;;5.23;75.56
58879;BME280;44660;42.664;23.266;2022-12-07T03:43:21;94448.13;;;5.29;75.48
58879;BME280;44660;42.664;23.266;2022-12-07T03:46:03;94448.63;;;5.44;75.16
58879;BME280;44660;42.664;23.266;2022-12-07T03:48:37;94405.06;;;5.03;75.53
58879;BME280;44660;42.664;23.266;2022-12-07T03:54:07;94450.31;;;5.32;75.47
58879;BME280;44660;42.664;23.266;2022-12-07T03:56:34;94443.84;;;5.28;75.80
58879;BME280;44660;42.664;23.266;2022-12-07T03:59:00;94452.28;;;5.43;75.74
58879;BME280;44660;42.664;23.266;2022-12-07T04:01:26;94421.19;;;5.20;75.44
58879;BME280;44660;42.664;23.266;2022-12-07T04:03:52;94444.53;;;5.48;75.53
58879;BME280;44660;42.664;23.266;2022-12-07T04:06:17;94342.09;;;4.56;75.24
58879;BME280;44660;42.664;23.266;2022-12-07T04:08:43;94427.63;;;5.31;75.54
58879;BME280;44660;42.664;23.266;2022-12-07T04:11:09;94445.75;;;5.52;75.50
58879;BME280;44660;42.664;23.266;2022-12-07T04:13:34;94350.81;;;4.88;75.45
58879;BME280;44660;42.664;23.266;2022-12-07T04:16:20;94423.53;;;5.35;75.35
58879;BME280;44660;42.664;23.266;2022-12-07T04:18:45;94448.38;;;5.52;75.16
58879;BME280;44660;42.664;23.266;2022-12-07T04:21:11;94413.84;;;5.29;75.22
58879;BME280;44660;42.664;23.266;2022-12-07T04:23:36;94446.59;;;5.46;75.11
58879;BME280;44660;42.664;23.266;2022-12-07T04:26:02;94404.56;;;5.19;75.42
58879;BME280;44660;42.664;23.266;2022-12-07T04:28:27;94437.91;;;5.39;75.28
58879;BME280;44660;42.664;23.266;2022-12-07T04:30:52;94451.88;;;5.46;75.43
58879;BME280;44660;42.664;23.266;2022-12-07T04:33:18;94440.81;;;5.31;75.64
58879;BME280;44660;42.664;23.266;2022-12-07T04:35:43;94433.47;;;5.33;75.60
58879;BME280;44660;42.664;23.266;2022-12-07T04:38:09;94449.63;;;5.43;75.48
58879;BME280;44660;42.664;23.266;2022-12-07T04:40:34;94449.47;;;5.38;75.54
58879;BME280;44660;42.664;23.266;2022-12-07T04:43:00;94442.63;;;5.30;75.56
58879;BME280;44660;42.664;23.266;2022-12-07T04:45:25;94463.25;;;5.40;75.54
58879;BME280;44660;42.664;23.266;2022-12-07T04:47:51;94459.63;;;5.41;75.48
58879;BME280;44660;42.664;23.266;2022-12-07T04:50:16;94420.00;;;5.16;75.05
58879;BME280;44660;42.664;23.266;2022-12-07T04:52:41;94441.81;;;5.30;74.85
58879;BME280;44660;42.664;23.266;2022-12-07T04:55:07;94438.75;;;5.33;75.27
58879;BME280;44660;42.664;23.266;2022-12-07T04:57:33;94438.81;;;5.26;75.09
58879;BME280;44660;42.664;23.266;2022-12-07T04:59:58;94410.72;;;5.06;74.90
58879;BME280;44660;42.664;23.266;2022-12-07T05:02:23;94425.69;;;5.13;74.83
58879;BME280;44660;42.664;23.266;2022-12-07T05:04:49;94469.34;;;5.40;74.81
58879;BME280;44660;42.664;23.266;2022-12-07T05:07:14;94460.38;;;5.48;74.81
58879;BME280;44660;42.664;23.266;2022-12-07T05:09:40;94448.69;;;5.37;75.09
58879;BME280;44660;42.664;23.266;2022-12-07T05:12:05;94467.25;;;5.49;75.40
58879;BME280;44660;42.664;23.266;2022-12-07T05:14:31;94465.84;;;5.47;75.28
58879;BME280;44660;42.664;23.266;2022-12-07T05:16:56;94445.44;;;5.35;75.68
58879;BME280;44660;42.664;23.266;2022-12-07T05:19:21;94424.44;;;5.22;75.49
58879;BME280;44660;42.664;23.266;2022-12-07T05:21:47;94461.22;;;5.42;75.78
58879;BME280;44660;42.664;23.266;2022-12-07T05:24:13;94449.91;;;5.35;75.79
58879;BME280;44660;42.664;23.266;2022-12-07T05:26:40;94453.50;;;5.47;75.51
58879;BME280;44660;42.664;23.266;2022-12-07T05:29:06;94451.03;;;5.52;75.46
58879;BME280;44660;42.664;23.266;2022-12-07T05:31:31;94446.94;;;5.56;75.30
58879;BME280;44660;42.664;23.266;2022-12-07T05:33:57;94445.22;;;5.69;75.13
58879;BME280;44660;42.664;23.266;2022-12-07T05:36:23;94438.16;;;5.63;74.42
58879;BME280;44660;42.664;23.266;2022-12-07T05:38:48;94430.25;;;5.63;74.61
58879;BME280;44660;42.664;23.266;2022-12-07T05:41:16;94447.19;;;5.73;74.90
58879;BME280;44660;42.664;23.266;2022-12-07T05:44:00;94399.13;;;5.46;74.86
58879;BME280;44660;42.664;23.266;2022-12-07T05:46:26;94438.34;;;5.68;75.02
58879;BME280;44660;42.664;23.266;2022-12-07T05:48:52;94435.91;;;5.66;75.31
58879;BME280;44660;42.664;23.266;2022-12-07T05:51:17;94416.06;;;5.57;75.15
58879;BME280;44660;42.664;23.266;2022-12-07T05:53:43;94434.69;;;5.69;75.17
58879;BME280;44660;42.664;23.266;2022-12-07T05:56:09;94416.34;;;5.49;74.78
58879;BME280;44660;42.664;23.266;2022-12-07T05:58:34;94435.09;;;5.66;74.86
58879;BME280;44660;42.664;23.266;2022-12-07T06:01:18;94438.72;;;5.71;74.54
58879;BME280;44660;42.664;23.266;2022-12-07T06:03:44;94381.75;;;5.32;74.61
58879;BME280;44660;42.664;23.266;2022-12-07T06:06:10;94421.59;;;5.23;74.88
58879;BME280;44660;42.664;23.266;2022-12-07T06:08:36;94444.78;;;5.72;74.80
58879;BME280;44660;42.664;23.266;2022-12-07T06:11:01;94441.38;;;5.65;74.55
58879;BME280;44660;42.664;23.266;2022-12-07T06:13:46;94447.19;;;5.80;74.52
58879;BME280;44660;42.664;23.266;2022-12-07T06:16:11;94449.63;;;5.75;74.78
58879;BME280;44660;42.664;23.266;2022-12-07T06:18:36;94452.44;;;5.80;74.70
58879;BME280;44660;42.664;23.266;2022-12-07T06:21:02;94453.69;;;5.78;74.67
58879;BME280;44660;42.664;23.266;2022-12-07T06:23:28;94443.56;;;5.75;74.84
58879;BME280;44660;42.664;23.266;2022-12-07T06:25:53;94461.31;;;5.86;74.80
58879;BME280;44660;42.664;23.266;2022-12-07T06:28:19;94439.44;;;5.79;74.60
58879;BME280;44660;42.664;23.266;2022-12-07T06:30:44;94427.00;;;5.61;75.59
58879;BME280;44660;42.664;23.266;2022-12-07T06:33:09;94466.22;;;5.82;75.36
58879;BME280;44660;42.664;23.266;2022-12-07T06:35:35;94462.25;;;5.73;75.20
58879;BME280;44660;42.664;23.266;2022-12-07T06:38:00;94456.69;;;5.81;75.17
58879;BME280;44660;42.664;23.266;2022-12-07T06:40:26;94468.00;;;5.88;74.44
58879;BME280;44660;42.664;23.266;2022-12-07T06:42:51;94469.34;;;5.98;74.39
58879;BME280;44660;42.664;23.266;2022-12-07T06:45:17;94465.88;;;6.04;74.08
58879;BME280;44660;42.664;23.266;2022-12-07T06:47:42;94471.31;;;6.09;73.92
58879;BME280;44660;42.664;23.266;2022-12-07T06:50:08;94450.28;;;5.96;73.94
58879;BME280;44660;42.664;23.266;2022-12-07T06:52:34;94445.50;;;5.86;73.89
58879;BME280;44660;42.664;23.266;2022-12-07T06:54:59;94472.53;;;6.13;73.96
58879;BME280;44660;42.664;23.266;2022-12-07T06:57:25;94473.69;;;6.17;73.58
58879;BME280;44660;42.664;23.266;2022-12-07T06:59:51;94479.56;;;6.19;73.58
58879;BME280;44660;42.664;23.266;2022-12-07T07:02:16;94478.97;;;6.17;73.46
58879;BME280;44660;42.664;23.266;2022-12-07T07:04:42;94437.66;;;5.98;73.33
58879;BME280;44660;42.664;23.266;2022-12-07T07:07:08;94389.81;;;5.69;73.02
58879;BME280;44660;42.664;23.266;2022-12-07T07:09:33;94443.25;;;6.15;73.00
58879;BME280;44660;42.664;23.266;2022-12-07T07:11:58;94440.59;;;5.89;73.34
58879;BME280;44660;42.664;23.266;2022-12-07T07:14:24;94382.16;;;5.61;72.90
58879;BME280;44660;42.664;23.266;2022-12-07T07:16:50;94465.88;;;6.29;73.05
58879;BME280;44660;42.664;23.266;2022-12-07T07:19:16;94462.44;;;6.29;72.74
58879;BME280;44660;42.664;23.266;2022-12-07T07:21:41;94434.34;;;6.09;73.07
58879;BME280;44660;42.664;23.266;2022-12-07T07:24:07;94184.16;;;4.43;72.84
58879;BME280;44660;42.664;23.266;2022-12-07T07:26:32;94388.03;;;5.63;73.00
58879;BME280;44660;42.664;23.266;2022-12-07T07:28:58;94497.72;;;6.09;72.83
58879;BME280;44660;42.664;23.266;2022-12-07T07:31:23;94461.25;;;5.93;73.10
58879;BME280;44660;42.664;23.266;2022-12-07T07:33:49;94431.69;;;5.84;73.00
58879;BME280;44660;42.664;23.266;2022-12-07T07:36:14;94471.00;;;5.99;73.21
58879;BME280;44660;42.664;23.266;2022-12-07T07:38:40;94475.03;;;6.01;73.29
58879;BME280;44660;42.664;23.266;2022-12-07T07:41:05;94470.91;;;6.12;73.25
58879;BME280;44660;42.664;23.266;2022-12-07T07:43:32;94476.28;;;6.24;72.86
58879;BME280;44660;42.664;23.266;2022-12-07T07:45:58;94481.78;;;6.23;73.14
58879;BME280;44660;42.664;23.266;2022-12-07T07:48:23;94464.41;;;6.08;73.18
58879;BME280;44660;42.664;23.266;2022-12-07T07:50:50;94471.06;;;6.36;72.74
58879;BME280;44660;42.664;23.266;2022-12-07T07:53:16;94476.38;;;6.54;72.35
58879;BME280;44660;42.664;23.266;2022-12-07T07:55:41;94450.41;;;6.33;72.02
58879;BME280;44660;42.664;23.266;2022-12-07T07:58:07;94476.16;;;6.56;71.85
58879;BME280;44660;42.664;23.266;2022-12-07T08:00:32;94460.38;;;6.49;71.67
58879;BME280;44660;42.664;23.266;2022-12-07T08:02:58;94260.22;;;5.15;71.42
58879;BME280;44660;42.664;23.266;2022-12-07T08:05:24;94472.94;;;6.54;71.47
58879;BME280;44660;42.664;23.266;2022-12-07T08:07:50;94426.69;;;6.26;71.71
58879;BME280;44660;42.664;23.266;2022-12-07T08:10:15;94441.75;;;6.44;71.60
58879;BME280;44660;42.664;23.266;2022-12-07T08:12:42;94449.44;;;6.46;71.70
58879;BME280;44660;42.664;23.266;2022-12-07T08:15:28;94460.16;;;6.51;71.68
58879;BME280;44660;42.664;23.266;2022-12-07T08:17:54;94423.00;;;6.09;71.98
58879;BME280;44660;42.664;23.266;2022-12-07T08:20:20;94464.44;;;6.52;71.78
58879;BME280;44660;42.664;23.266;2022-12-07T08:22:45;94407.38;;;6.26;71.12
58879;BME280;44660;42.664;23.266;2022-12-07T08:25:11;94467.00;;;6.40;71.69
58879;BME280;44660;42.664;23.266;2022-12-07T08:27:37;94405.19;;;5.97;71.99
58879;BME280;44660;42.664;23.266;2022-12-07T08:30:03;94368.31;;;5.91;71.67
58879;BME280;44660;42.664;23.266;2022-12-07T08:32:28;94453.94;;;6.45;71.48
58879;BME280;44660;42.664;23.266;2022-12-07T08:34:53;94465.59;;;6.56;71.18
58879;BME280;44660;42.664;23.266;2022-12-07T08:37:19;94391.25;;;6.15;70.81
58879;BME280;44660;42.664;23.266;2022-12-07T08:39:44;94479.50;;;6.89;70.54
58879;BME280;44660;42.664;23.266;2022-12-07T08:42:10;94451.53;;;6.81;70.19
58879;BME280;44660;42.664;23.266;2022-12-07T08:44:36;94465.00;;;7.10;70.19
58879;BME280;44660;42.664;23.266;2022-12-07T08:47:04;94426.16;;;6.92;69.93
58879;BME280;44660;42.664;23.266;2022-12-07T08:49:42;94467.69;;;7.22;70.01
58879;BME280;44660;42.664;23.266;2022-12-07T08:52:08;94459.19;;;7.19;69.79
58879;BME280;44660;42.664;23.266;2022-12-07T08:54:36;94412.53;;;6.95;69.55
58879;BME280;44660;42.664;23.266;2022-12-07T08:57:04;94402.97;;;6.94;69.79
58879;BME280;44660;42.664;23.266;2022-12-07T08:59:30;94451.56;;;7.42;69.21
58879;BME280;44660;42.664;23.266;2022-12-07T09:01:55;94432.72;;;7.50;68.84
58879;BME280;44660;42.664;23.266;2022-12-07T09:04:21;94448.97;;;7.65;68.72
58879;BME280;44660;42.664;23.266;2022-12-07T09:06:47;94434.66;;;7.85;67.87
58879;BME280;44660;42.664;23.266;2022-12-07T09:09:13;94401.56;;;7.64;67.54
58879;BME280;44660;42.664;23.266;2022-12-07T09:11:39;94394.59;;;7.70;67.01
58879;BME280;44660;42.664;23.266;2022-12-07T09:14:05;94439.16;;;8.08;67.06
58879;BME280;44660;42.664;23.266;2022-12-07T09:16:30;94389.19;;;7.76;66.81
58879;BME280;44660;42.664;23.266;2022-12-07T09:18:56;94425.09;;;7.96;66.90
58879;BME280;44660;42.664;23.266;2022-12-07T09:21:21;94368.56;;;7.66;66.78
58879;BME280;44660;42.664;23.266;2022-12-07T09:23:47;94419.94;;;8.25;66.17
58879;BME280;44660;42.664;23.266;2022-12-07T09:26:12;94417.63;;;8.40;65.49
58879;BME280;44660;42.664;23.266;2022-12-07T09:28:38;94428.31;;;8.45;65.14
58879;BME280;44660;42.664;23.266;2022-12-07T09:31:04;94327.25;;;7.77;65.11
58879;BME280;44660;42.664;23.266;2022-12-07T09:33:29;94416.47;;;8.36;65.45
58879;BME280;44660;42.664;23.266;2022-12-07T09:35:55;94422.00;;;8.34;65.48
58879;BME280;44660;42.664;23.266;2022-12-07T09:38:20;94412.91;;;8.18;65.92
58879;BME280;44660;42.664;23.266;2022-12-07T09:40:46;94395.28;;;8.00;66.01
58879;BME280;44660;42.664;23.266;2022-12-07T09:43:15;94392.41;;;8.02;66.08
58879;BME280;44660;42.664;23.266;2022-12-07T09:45:42;94375.84;;;7.95;65.93
58879;BME280;44660;42.664;23.266;2022-12-07T09:48:18;94385.97;;;7.98;66.18
58879;BME280;44660;42.664;23.266;2022-12-07T09:50:45;94342.91;;;7.91;65.92
58879;BME280;44660;42.664;23.266;2022-12-07T09:53:38;94397.94;;;8.36;65.89
58879;BME280;44660;42.664;23.266;2022-12-07T09:56:03;94401.38;;;8.37;65.63
58879;BME280;44660;42.664;23.266;2022-12-07T09:58:29;94382.28;;;8.46;65.19
58879;BME280;44660;42.664;23.266;2022-12-07T10:01:00;94376.38;;;8.44;65.02
58879;BME280;44660;42.664;23.266;2022-12-07T10:03:29;94391.53;;;8.85;64.97
58879;BME280;44660;42.664;23.266;2022-12-07T10:05:55;94335.13;;;8.60;64.19
58879;BME280;44660;42.664;23.266;2022-12-07T10:08:22;94275.19;;;8.18;63.87
58879;BME280;44660;42.664;23.266;2022-12-07T10:10:53;94384.81;;;8.94;63.67
58879;BME280;44660;42.664;23.266;2022-12-07T10:13:45;94371.25;;;9.07;63.40
58879;BME280;44660;42.664;23.266;2022-12-07T10:18:52;94350.22;;;9.18;62.88
58879;BME280;44660;42.664;23.266;2022-12-07T10:21:20;94301.19;;;9.03;62.37
58879;BME280;44660;42.664;23.266;2022-12-07T10:24:13;94360.06;;;9.34;62.21
58879;BME280;44660;42.664;23.266;2022-12-07T10:31:40;94317.66;;;9.05;62.74
58879;BME280;44660;42.664;23.266;2022-12-07T10:34:20;94284.34;;;8.80;62.81
58879;BME280;44660;42.664;23.266;2022-12-07T10:36:47;94334.19;;;9.24;62.70
58879;BME280;44660;42.664;23.266;2022-12-07T10:39:23;94297.75;;;9.20;62.38
58879;BME280;44660;42.664;23.266;2022-12-07T10:42:00;94291.72;;;9.41;61.65
58879;BME280;44660;42.664;23.266;2022-12-07T10:44:32;94333.31;;;9.53;62.51
58879;BME280;44660;42.664;23.266;2022-12-07T10:47:26;94336.84;;;9.75;62.07
58879;BME280;44660;42.664;23.266;2022-12-07T10:56:09;94314.72;;;9.70;61.76
58879;BME280;44660;42.664;23.266;2022-12-07T10:58:24;94312.03;;;10.04;60.94
58879;BME280;44660;42.664;23.266;2022-12-07T11:06:54;94260.50;;;10.27;58.56
58879;BME280;44660;42.664;23.266;2022-12-07T11:09:51;94295.13;;;10.32;58.90
58879;BME280;44660;42.664;23.266;2022-12-07T11:12:29;94291.41;;;10.33;58.51
58879;BME280;44660;42.664;23.266;2022-12-07T11:17:36;94243.66;;;10.16;58.14
58879;BME280;44660;42.664;23.266;2022-12-07T11:20:59;94291.28;;;10.40;58.27
58879;BME280;44660;42.664;23.266;2022-12-07T11:23:21;94278.34;;;10.49;58.29
58879;BME280;44660;42.664;23.266;2022-12-07T11:25:54;94275.72;;;10.54;58.10
58879;BME280;44660;42.664;23.266;2022-12-07T11:28:33;94271.25;;;10.82;57.64
58879;BME280;44660;42.664;23.266;2022-12-07T11:34:00;94255.59;;;11.13;56.13
58879;BME280;44660;42.664;23.266;2022-12-07T11:36:43;94259.78;;;11.36;56.19
58879;BME280;44660;42.664;23.266;2022-12-07T11:39:16;94251.09;;;11.88;55.58
58879;BME280;44660;42.664;23.266;2022-12-07T11:41:49;94246.53;;;12.32;53.19
58879;BME280;44660;42.664;23.266;2022-12-07T11:47:38;94239.78;;;12.93;51.33
58879;BME280;44660;42.664;23.266;2022-12-07T11:55:06;94198.34;;;12.59;51.33
58879;BME280;44660;42.664;23.266;2022-12-07T11:57:42;94162.59;;;12.50;51.11
58879;BME280;44660;42.664;23.266;2022-12-07T12:00:17;94234.72;;;13.06;50.83
58879;BME280;44660;42.664;23.266;2022-12-07T12:02:51;94238.97;;;13.18;50.98
58879;BME280;44660;42.664;23.266;2022-12-07T12:05:21;94186.94;;;13.26;49.89
58879;BME280;44660;42.664;23.266;2022-12-07T12:08:03;94188.81;;;13.20;48.94
58879;BME280;44660;42.664;23.266;2022-12-07T12:10:42;94218.09;;;13.97;48.65
58879;BME280;44660;42.664;23.266;2022-12-07T12:16:28;94207.81;;;14.35;46.91
58879;BME280;44660;42.664;23.266;2022-12-07T12:21:28;94200.00;;;14.44;46.52
58879;BME280;44660;42.664;23.266;2022-12-07T12:24:01;94205.63;;;14.43;46.90
58879;BME280;44660;42.664;23.266;2022-12-07T12:26:31;94195.50;;;14.34;47.00
58879;BME280;44660;42.664;23.266;2022-12-07T12:29:04;94176.38;;;14.07;47.44
58879;BME280;44660;42.664;23.266;2022-12-07T12:31:37;94163.97;;;13.35;48.34
58879;BME280;44660;42.664;23.266;2022-12-07T12:35:19;94186.94;;;13.46;49.39
58879;BME280;44660;42.664;23.266;2022-12-07T12:40:38;94185.59;;;13.59;48.65
58879;BME280;44660;42.664;23.266;2022-12-07T12:43:43;94146.88;;;13.46;48.30
58879;BME280;44660;42.664;23.266;2022-12-07T12:48:56;94131.69;;;13.16;48.77
58879;BME280;44660;42.664;23.266;2022-12-07T12:51:41;94185.84;;;13.63;48.63
58879;BME280;44660;42.664;23.266;2022-12-07T12:54:18;94172.25;;;13.49;48.72
58879;BME280;44660;42.664;23.266;2022-12-07T12:56:59;94182.91;;;13.59;48.22
58879;BME280;44660;42.664;23.266;2022-12-07T12:59:30;94171.19;;;13.55;48.84
58879;BME280;44660;42.664;23.266;2022-12-07T13:02:09;94136.19;;;13.51;48.49
58879;BME280;44660;42.664;23.266;2022-12-07T13:15:43;94169.59;;;13.49;47.98
58879;BME280;44660;42.664;23.266;2022-12-07T13:23:36;94112.97;;;13.31;48.26
58879;BME280;44660;42.664;23.266;2022-12-07T13:26:09;94178.47;;;14.20;47.33
58879;BME280;44660;42.664;23.266;2022-12-07T13:28:40;94156.25;;;14.25;47.05
58879;BME280;44660;42.664;23.266;2022-12-07T13:31:14;94178.06;;;14.47;46.34
58879;BME280;44660;42.664;23.266;2022-12-07T13:33:44;94168.06;;;14.13;46.43
58879;BME280;44660;42.664;23.266;2022-12-07T13:36:19;94177.25;;;13.81;47.62
58879;BME280;44660;42.664;23.266;2022-12-07T13:39:11;94177.59;;;13.44;48.27
58879;BME280;44660;42.664;23.266;2022-12-07T13:41:42;94171.72;;;13.31;49.23
58879;BME280;44660;42.664;23.266;2022-12-07T13:44:14;94174.38;;;13.31;49.62
58879;BME280;44660;42.664;23.266;2022-12-07T13:46:55;94168.50;;;13.03;49.80
58879;BME280;44660;42.664;23.266;2022-12-07T13:49:25;94157.28;;;12.96;49.81
58879;BME280;44660;42.664;23.266;2022-12-07T13:51:52;94142.09;;;12.86;50.61
58879;BME280;44660;42.664;23.266;2022-12-07T13:54:19;94155.16;;;12.72;50.60
58879;BME280;44660;42.664;23.266;2022-12-07T13:56:49;94162.91;;;12.79;50.52
58879;BME280;44660;42.664;23.266;2022-12-07T13:59:25;94114.03;;;12.27;51.22
58879;BME280;44660;42.664;23.266;2022-12-07T14:01:52;94175.94;;;12.50;51.27
58879;BME280;44660;42.664;23.266;2022-12-07T14:06:55;94170.47;;;12.08;52.75
58879;BME280;44660;42.664;23.266;2022-12-07T14:09:23;94155.03;;;12.16;52.39
58879;BME280;44660;42.664;23.266;2022-12-07T14:11:52;94165.22;;;12.24;52.24
58879;BME280;44660;42.664;23.266;2022-12-07T14:14:21;94141.97;;;12.09;52.37
58879;BME280;44660;42.664;23.266;2022-12-07T14:16:58;94134.13;;;11.92;52.47
58879;BME280;44660;42.664;23.266;2022-12-07T14:24:47;94145.69;;;11.55;53.25
58879;BME280;44660;42.664;23.266;2022-12-07T14:27:21;94189.66;;;11.63;53.96
58879;BME280;44660;42.664;23.266;2022-12-07T14:29:47;94188.28;;;11.55;53.98
58879;BME280;44660;42.664;23.266;2022-12-07T14:32:29;94106.97;;;10.94;54.68
58879;BME280;44660;42.664;23.266;2022-12-07T14:35:12;94190.34;;;11.42;54.83
58879;BME280;44660;42.664;23.266;2022-12-07T14:37:39;94189.25;;;11.38;55.28
58879;BME280;44660;42.664;23.266;2022-12-07T14:40:06;94178.75;;;11.21;55.32
58879;BME280;44660;42.664;23.266;2022-12-07T14:42:33;94156.22;;;10.97;56.18
58879;BME280;44660;42.664;23.266;2022-12-07T14:44:59;94179.41;;;11.01;56.35